createdAt,value
2023-01-25T00:02:07.114Z,3.36
2023-01-25T00:04:33.585Z,3.33
2023-01-25T00:07:00.002Z,3.31
2023-01-25T00:09:26.503Z,3.29
2023-01-25T00:11:53.268Z,3.29
2023-01-25T00:14:19.693Z,3.27
2023-01-25T00:16:46.292Z,3.29
2023-01-25T00:19:12.788Z,3.30
2023-01-25T00:21:39.940Z,3.33
2023-01-25T00:24:07.185Z,3.34
2023-01-25T00:26:34.657Z,3.35
2023-01-25T00:29:02.197Z,3.34
2023-01-25T00:31:40.712Z,3.34
2023-01-25T00:34:15.541Z,3.35
2023-01-25T00:36:42.104Z,3.36
2023-01-25T00:39:12.879Z,3.36
2023-01-25T00:41:40.215Z,3.31
2023-01-25T00:44:07.035Z,3.32
2023-01-25T00:46:33.448Z,3.31
2023-01-25T00:49:00.018Z,3.28
2023-01-25T00:51:26.560Z,3.28
2023-01-25T00:53:53.409Z,3.30
2023-01-25T00:56:20.110Z,3.26
2023-01-25T00:58:46.679Z,3.27
2023-01-25T01:01:13.349Z,3.26
2023-01-25T01:03:40.089Z,3.26
2023-01-25T01:06:11.994Z,3.24
2023-01-25T01:08:42.506Z,3.23
2023-01-25T01:11:11.321Z,3.21
2023-01-25T01:13:38.272Z,3.22
2023-01-25T01:16:08.429Z,3.22
2023-01-25T01:18:36.490Z,3.23
2023-01-25T01:21:03.514Z,3.19
2023-01-25T01:23:31.185Z,3.18
2023-01-25T01:26:02.387Z,3.15
2023-01-25T01:28:29.933Z,3.13
2023-01-25T01:31:03.652Z,3.13
2023-01-25T01:33:30.316Z,3.13
2023-01-25T01:35:57.167Z,3.14
2023-01-25T01:38:23.642Z,3.12
2023-01-25T01:40:50.792Z,3.12
2023-01-25T01:43:26.502Z,3.14
2023-01-25T01:45:58.736Z,3.16
2023-01-25T01:48:52.384Z,3.15
2023-01-25T01:51:39.337Z,3.13
2023-01-25T01:54:11.535Z,3.13
2023-01-25T01:56:50.863Z,3.12
2023-01-25T01:59:18.223Z,3.13
2023-01-25T02:01:44.958Z,3.14
2023-01-25T02:04:14.169Z,3.15
2023-01-25T02:07:05.855Z,3.15
2023-01-25T02:09:35.169Z,3.14
2023-01-25T02:14:40.299Z,3.13
2023-01-25T02:17:06.725Z,3.12
2023-01-25T02:19:54.048Z,3.09
2023-01-25T02:22:31.339Z,3.09
2023-01-25T02:25:10.481Z,3.09
2023-01-25T02:27:44.356Z,3.11
2023-01-25T02:30:11.566Z,3.11
2023-01-25T02:32:38.369Z,3.08
2023-01-25T02:35:06.323Z,3.05
2023-01-25T02:37:33.020Z,2.98
2023-01-25T02:39:59.517Z,2.96
2023-01-25T02:42:30.729Z,2.93
2023-01-25T02:44:57.191Z,2.91
2023-01-25T02:47:23.576Z,2.89
2023-01-25T02:49:49.987Z,2.89
2023-01-25T02:52:16.351Z,2.87
2023-01-25T02:54:42.713Z,2.79
2023-01-25T02:57:09.676Z,2.82
2023-01-25T02:59:36.885Z,2.84
2023-01-25T03:02:03.253Z,2.87
2023-01-25T03:04:29.664Z,2.88
2023-01-25T03:06:56.369Z,2.94
2023-01-25T03:09:22.763Z,2.94
2023-01-25T03:11:49.249Z,2.97
2023-01-25T03:14:15.694Z,2.94
2023-01-25T03:16:42.067Z,2.95
2023-01-25T03:19:08.606Z,2.95
2023-01-25T03:21:35.041Z,2.97
2023-01-25T03:24:02.624Z,2.97
2023-01-25T03:26:29.641Z,2.98
2023-01-25T03:28:56.279Z,2.99
2023-01-25T03:31:22.882Z,3.00
2023-01-25T03:33:49.797Z,3.00
2023-01-25T03:36:16.473Z,3.02
2023-01-25T03:38:42.997Z,3.03
2023-01-25T03:41:10.113Z,3.03
2023-01-25T03:43:36.559Z,3.04
2023-01-25T03:46:03.329Z,3.06
2023-01-25T03:48:30.159Z,3.08
2023-01-25T03:50:59.132Z,3.08
2023-01-25T03:53:31.283Z,3.06
2023-01-25T03:56:03.332Z,3.05
2023-01-25T03:58:30.677Z,3.02
2023-01-25T04:00:59.513Z,3.03
2023-01-25T04:03:26.200Z,3.01
2023-01-25T04:05:54.011Z,2.94
2023-01-25T04:08:21.119Z,2.93
2023-01-25T04:11:01.118Z,2.93
2023-01-25T04:13:28.331Z,2.88
2023-01-25T04:15:54.882Z,2.84
2023-01-25T04:18:21.686Z,2.82
2023-01-25T04:20:53.850Z,2.79
2023-01-25T04:23:20.582Z,2.78
2023-01-25T04:25:55.156Z,2.77
2023-01-25T04:28:22.283Z,2.72
2023-01-25T04:30:48.816Z,2.68
2023-01-25T04:33:15.234Z,2.65
2023-01-25T04:35:41.628Z,2.64
2023-01-25T04:38:09.220Z,2.63
2023-01-25T04:40:35.656Z,2.61
2023-01-25T04:43:02.244Z,2.58
2023-01-25T04:45:28.778Z,2.59
2023-01-25T04:47:57.639Z,2.65
2023-01-25T04:50:24.677Z,2.68
2023-01-25T04:52:51.143Z,2.74
2023-01-25T04:55:17.659Z,2.77
2023-01-25T04:57:44.374Z,2.82
2023-01-25T05:00:11.902Z,2.86
2023-01-25T05:02:39.670Z,2.90
2023-01-25T05:05:06.881Z,2.92
2023-01-25T05:07:33.489Z,2.94
2023-01-25T05:09:59.937Z,2.95
2023-01-25T05:12:26.584Z,2.93
2023-01-25T05:14:53.040Z,2.92
2023-01-25T05:17:19.536Z,2.90
2023-01-25T05:19:45.902Z,2.91
2023-01-25T05:22:14.412Z,2.92
2023-01-25T05:24:41.663Z,2.92
2023-01-25T05:27:10.293Z,2.92
2023-01-25T05:29:39.837Z,2.91
2023-01-25T05:32:11.616Z,2.88
2023-01-25T05:34:38.194Z,2.87
2023-01-25T05:37:06.795Z,2.83
2023-01-25T05:39:33.235Z,2.81
2023-01-25T05:41:59.878Z,2.80
2023-01-25T05:44:26.669Z,2.79
2023-01-25T05:46:53.227Z,2.74
2023-01-25T05:49:19.991Z,2.70
2023-01-25T05:51:46.616Z,2.70
2023-01-25T05:54:18.438Z,2.70
2023-01-25T05:56:45.015Z,2.69
2023-01-25T05:59:12.195Z,2.69
2023-01-25T06:01:39.067Z,2.61
2023-01-25T06:04:06.040Z,2.56
2023-01-25T06:06:32.657Z,2.55
2023-01-25T06:08:59.125Z,2.59
2023-01-25T06:11:25.599Z,2.62
2023-01-25T06:13:52.086Z,2.68
2023-01-25T06:16:19.308Z,2.71
2023-01-25T06:18:46.358Z,2.72
2023-01-25T06:21:12.823Z,2.73
2023-01-25T06:23:39.550Z,2.75
2023-01-25T06:26:12.357Z,2.75
2023-01-25T06:28:39.117Z,2.71
2023-01-25T06:31:11.291Z,2.72
2023-01-25T06:33:38.169Z,2.71
2023-01-25T06:36:08.052Z,2.71
2023-01-25T06:38:34.471Z,2.74
2023-01-25T06:41:05.966Z,2.75
2023-01-25T06:43:33.834Z,2.74
2023-01-25T06:46:06.034Z,2.76
2023-01-25T06:48:33.463Z,2.78
2023-01-25T06:51:02.487Z,2.82
2023-01-25T06:53:31.976Z,2.87
2023-01-25T06:56:00.821Z,2.87
2023-01-25T06:58:28.468Z,2.89
2023-01-25T07:01:03.508Z,2.91
2023-01-25T07:03:31.275Z,2.90
2023-01-25T07:06:01.960Z,2.93
2023-01-25T07:08:28.952Z,2.92
2023-01-25T07:10:56.793Z,2.93
2023-01-25T07:13:24.109Z,2.94
2023-01-25T07:16:05.027Z,2.96
2023-01-25T07:18:32.867Z,2.94
2023-01-25T07:21:07.434Z,2.92
2023-01-25T07:23:34.866Z,2.92
2023-01-25T07:26:01.637Z,2.90
2023-01-25T07:28:28.404Z,2.92
2023-01-25T07:30:55.123Z,2.90
2023-01-25T07:33:21.530Z,2.89
2023-01-25T07:35:50.876Z,2.87
2023-01-25T07:38:17.766Z,2.87
2023-01-25T07:40:44.230Z,2.87
2023-01-25T07:43:10.699Z,2.86
2023-01-25T07:45:37.156Z,2.87
2023-01-25T07:48:09.919Z,2.89
2023-01-25T07:50:36.385Z,2.90
2023-01-25T07:53:02.893Z,2.92
2023-01-25T07:55:29.304Z,2.93
2023-01-25T07:57:55.794Z,2.93
2023-01-25T08:00:24.077Z,2.91
2023-01-25T08:02:51.943Z,2.91
2023-01-25T08:05:18.857Z,2.90
2023-01-25T08:07:45.920Z,2.91
2023-01-25T08:10:12.313Z,2.92
2023-01-25T08:12:38.743Z,2.91
2023-01-25T08:15:05.616Z,2.90
2023-01-25T08:17:32.722Z,2.89
2023-01-25T08:20:01.535Z,2.88
2023-01-25T08:22:28.386Z,2.87
2023-01-25T08:24:54.996Z,2.88
2023-01-25T08:27:21.501Z,2.86
2023-01-25T08:29:48.039Z,2.87
2023-01-25T08:32:14.482Z,2.87
2023-01-25T08:34:41.258Z,2.88
2023-01-25T08:37:07.662Z,2.89
2023-01-25T08:39:34.037Z,2.90
2023-01-25T08:42:00.416Z,2.90
2023-01-25T08:44:26.799Z,2.89
2023-01-25T08:46:53.333Z,2.87
2023-01-25T08:49:19.687Z,2.86
2023-01-25T08:51:47.276Z,2.87
2023-01-25T08:54:13.823Z,2.87
2023-01-25T08:56:41.115Z,2.88
2023-01-25T08:59:09.804Z,2.87
2023-01-25T09:01:36.295Z,2.87
2023-01-25T09:04:02.782Z,2.87
2023-01-25T09:06:29.237Z,2.89
2023-01-25T09:08:55.638Z,2.89
2023-01-25T09:11:23.188Z,2.89
2023-01-25T09:13:49.925Z,2.90
2023-01-25T09:16:20.615Z,2.90
2023-01-25T09:18:49.780Z,2.89
2023-01-25T09:21:18.640Z,2.88
2023-01-25T09:24:05.489Z,2.88
2023-01-25T09:26:34.857Z,2.89
2023-01-25T09:29:01.324Z,2.90
2023-01-25T09:31:29.407Z,2.88
2023-01-25T09:33:57.173Z,2.89
2023-01-25T09:36:23.814Z,2.93
2023-01-25T09:38:50.223Z,2.96
2023-01-25T09:41:34.496Z,2.97
2023-01-25T09:44:14.599Z,2.98
2023-01-25T09:46:50.176Z,2.97
2023-01-25T09:49:40.183Z,2.98
2023-01-25T09:52:42.352Z,2.98
2023-01-25T09:55:14.561Z,3.00
2023-01-25T09:57:45.364Z,3.01
2023-01-25T10:00:18.482Z,3.01
2023-01-25T10:03:20.322Z,3.01
2023-01-25T10:05:53.540Z,3.02
2023-01-25T10:08:49.534Z,3.02
2023-01-25T10:11:27.882Z,3.01
2023-01-25T10:13:56.354Z,3.00
2023-01-25T10:16:43.330Z,3.02
2023-01-25T10:19:23.092Z,3.02
2023-01-25T10:22:11.527Z,3.01
2023-01-25T10:24:59.763Z,3.00
2023-01-25T10:28:01.711Z,3.01
2023-01-25T10:30:30.971Z,3.02
2023-01-25T10:33:13.365Z,3.03
2023-01-25T10:35:47.063Z,3.03
2023-01-25T10:38:23.980Z,3.04
2023-01-25T10:40:57.163Z,3.04
2023-01-25T10:43:23.770Z,3.04
2023-01-25T10:45:50.729Z,3.05
2023-01-25T10:48:29.145Z,3.05
2023-01-25T10:50:57.772Z,3.05
2023-01-25T10:53:36.495Z,3.06
2023-01-25T10:56:11.794Z,3.07
2023-01-25T10:58:40.729Z,3.08
2023-01-25T11:01:12.258Z,3.06
2023-01-25T11:03:46.778Z,3.06
2023-01-25T11:06:13.220Z,3.07
2023-01-25T11:08:42.262Z,3.09
2023-01-25T11:11:27.512Z,3.09
2023-01-25T11:13:57.403Z,3.07
2023-01-25T11:16:31.634Z,3.09
2023-01-25T11:18:59.518Z,3.06
2023-01-25T11:21:32.063Z,3.07
2023-01-25T11:24:01.109Z,3.06
2023-01-25T11:26:28.106Z,3.03
2023-01-25T11:29:26.373Z,3.06
2023-01-25T11:31:55.302Z,3.04
2023-01-25T11:34:26.649Z,3.06
2023-01-25T11:37:28.295Z,3.02
2023-01-25T11:40:28.692Z,3.01
2023-01-25T11:43:08.997Z,3.01
2023-01-25T11:46:10.383Z,3.00
2023-01-25T11:48:47.935Z,2.98
2023-01-25T11:51:35.874Z,2.99
2023-01-25T11:54:24.053Z,2.96
2023-01-25T11:57:08.686Z,2.99
2023-01-25T11:59:44.128Z,3.02
2023-01-25T12:02:19.167Z,3.01
2023-01-25T12:05:16.273Z,2.99
2023-01-25T12:08:03.761Z,3.00
2023-01-25T12:11:08.600Z,2.97
2023-01-25T12:14:02.071Z,2.97
2023-01-25T12:16:52.629Z,2.92
2023-01-25T12:19:33.819Z,2.94
2023-01-25T12:22:32.137Z,2.94
2023-01-25T12:25:30.191Z,2.96
2023-01-25T12:28:21.170Z,2.97
2023-01-25T12:30:50.703Z,3.00
2023-01-25T12:33:26.241Z,3.02
2023-01-25T12:36:20.736Z,3.02
2023-01-25T12:39:10.709Z,3.02
2023-01-25T12:41:40.465Z,3.04
2023-01-25T12:44:22.947Z,3.05
2023-01-25T12:47:05.275Z,3.05
2023-01-25T12:49:39.873Z,3.04
2023-01-25T12:52:17.555Z,3.03
2023-01-25T12:54:47.623Z,3.02
2023-01-25T12:57:42.008Z,3.00
2023-01-25T13:00:30.740Z,2.97
2023-01-25T13:03:26.756Z,2.95
2023-01-25T13:06:14.384Z,2.95
2023-01-25T13:09:04.881Z,2.97
2023-01-25T13:11:40.035Z,2.96
2023-01-25T13:14:18.660Z,2.96
2023-01-25T13:16:50.180Z,2.96
2023-01-25T13:19:42.763Z,2.96
2023-01-25T13:22:11.152Z,2.98
2023-01-25T13:25:02.988Z,2.96
2023-01-25T13:27:36.534Z,2.96
2023-01-25T13:30:28.009Z,2.96
2023-01-25T13:32:57.706Z,2.95
2023-01-25T13:35:40.492Z,2.97
2023-01-25T13:38:26.326Z,2.97
2023-01-25T13:41:10.752Z,2.96
2023-01-25T13:43:48.042Z,2.97
2023-01-25T13:46:17.274Z,2.99
2023-01-25T13:48:53.279Z,2.99
2023-01-25T13:51:20.703Z,2.99
2023-01-25T13:53:58.697Z,2.99
2023-01-25T13:56:34.436Z,3.00
2023-01-25T13:59:01.177Z,3.01
2023-01-25T14:01:30.807Z,3.00
2023-01-25T14:04:01.833Z,3.01
2023-01-25T14:06:36.080Z,2.97
2023-01-25T14:09:16.426Z,2.99
2023-01-25T14:11:54.533Z,2.97
2023-01-25T14:14:27.105Z,2.99
2023-01-25T14:17:09.122Z,2.96
2023-01-25T14:19:37.509Z,2.97
2023-01-25T14:22:12.901Z,2.98
2023-01-25T14:24:39.997Z,2.98
2023-01-25T14:27:07.092Z,2.99
2023-01-25T14:32:18.019Z,2.95
2023-01-25T14:34:44.475Z,2.94
2023-01-25T14:37:20.848Z,2.91
2023-01-25T14:39:49.441Z,2.92
2023-01-25T14:42:17.372Z,2.90
2023-01-25T14:44:44.941Z,2.90
2023-01-25T14:47:31.780Z,2.87
2023-01-25T14:50:29.327Z,2.87
2023-01-25T14:52:57.115Z,2.85
2023-01-25T14:55:23.564Z,2.87
2023-01-25T14:57:50.413Z,2.87
2023-01-25T15:00:16.836Z,2.86
2023-01-25T15:02:56.600Z,2.85
2023-01-25T15:05:29.742Z,2.85
2023-01-25T15:08:08.456Z,2.86
2023-01-25T15:10:36.561Z,2.83
2023-01-25T15:13:14.496Z,2.83
2023-01-25T15:16:01.151Z,2.81
2023-01-25T15:18:46.032Z,2.80
2023-01-25T15:21:15.419Z,2.77
2023-01-25T15:23:43.917Z,2.78
2023-01-25T15:26:18.429Z,2.77
2023-01-25T15:28:44.894Z,2.79
2023-01-25T15:31:20.938Z,2.79
2023-01-25T15:33:47.940Z,2.78
2023-01-25T15:36:16.967Z,2.80
2023-01-25T15:38:43.422Z,2.81
2023-01-25T15:41:11.151Z,2.80
2023-01-25T15:43:38.137Z,2.79
2023-01-25T15:46:06.379Z,2.77
2023-01-25T15:48:35.743Z,2.76
2023-01-25T15:51:02.322Z,2.74
2023-01-25T15:53:28.761Z,2.72
2023-01-25T15:56:00.377Z,2.72
2023-01-25T15:58:33.368Z,2.72
2023-01-25T16:01:00.313Z,2.69
2023-01-25T16:03:27.702Z,2.64
2023-01-25T16:06:04.624Z,2.62
2023-01-25T16:08:31.256Z,2.59
2023-01-25T16:10:57.680Z,2.56
2023-01-25T16:13:24.786Z,2.54
2023-01-25T16:15:53.858Z,2.54
2023-01-25T16:18:20.229Z,2.54
2023-01-25T16:20:46.686Z,2.54
2023-01-25T16:23:13.573Z,2.54
2023-01-25T16:25:42.332Z,2.54
2023-01-25T16:28:16.204Z,2.52
2023-01-25T16:30:45.034Z,2.51
2023-01-25T16:33:12.122Z,2.50
2023-01-25T16:35:38.578Z,2.49
2023-01-25T16:38:04.944Z,2.48
2023-01-25T16:40:38.507Z,2.47
2023-01-25T16:43:05.799Z,2.41
2023-01-25T16:45:32.240Z,2.38
2023-01-25T16:47:58.653Z,2.35
2023-01-25T16:50:25.083Z,2.34
2023-01-25T16:52:51.712Z,2.33
2023-01-25T16:55:19.424Z,2.35
2023-01-25T16:57:50.806Z,2.33
2023-01-25T17:00:17.695Z,2.31
2023-01-25T17:02:58.107Z,2.30
2023-01-25T17:05:27.719Z,2.27
2023-01-25T17:07:54.424Z,2.26
2023-01-25T17:10:20.932Z,2.25
2023-01-25T17:12:47.717Z,2.20
2023-01-25T17:15:14.308Z,2.16
2023-01-25T17:17:40.833Z,2.13
2023-01-25T17:20:08.784Z,2.14
2023-01-25T17:22:37.481Z,2.13
2023-01-25T17:25:07.408Z,2.16
2023-01-25T17:27:33.778Z,2.17
2023-01-25T17:30:00.206Z,2.18
2023-01-25T17:32:26.643Z,2.17
2023-01-25T17:34:53.764Z,2.18
2023-01-25T17:37:20.240Z,2.22
2023-01-25T17:39:47.667Z,2.24
2023-01-25T17:42:14.664Z,2.25
2023-01-25T17:44:41.264Z,2.26
2023-01-25T17:47:07.690Z,2.25
2023-01-25T17:49:34.141Z,2.27
2023-01-25T17:52:02.043Z,2.28
2023-01-25T17:54:28.514Z,2.28
2023-01-25T17:56:55.009Z,2.29
2023-01-25T17:59:21.624Z,2.28
2023-01-25T18:01:48.231Z,2.28
2023-01-25T18:04:17.502Z,2.28
2023-01-25T18:06:44.200Z,2.30
2023-01-25T18:09:10.725Z,2.31
2023-01-25T18:11:39.838Z,2.30
2023-01-25T18:14:09.933Z,2.32
2023-01-25T18:16:38.789Z,2.32
2023-01-25T18:19:06.080Z,2.34
2023-01-25T18:21:33.335Z,2.34
2023-01-25T18:24:03.534Z,2.35
2023-01-25T18:26:33.498Z,2.31
2023-01-25T18:29:19.762Z,2.30
2023-01-25T18:31:46.378Z,2.25
2023-01-25T18:34:13.449Z,2.20
2023-01-25T18:36:39.835Z,2.17
2023-01-25T18:39:08.480Z,2.15
2023-01-25T18:41:34.843Z,2.12
2023-01-25T18:44:01.318Z,2.11
2023-01-25T18:46:27.836Z,2.13
2023-01-25T18:48:54.291Z,2.13
2023-01-25T18:51:23.037Z,2.12
2023-01-25T18:53:49.589Z,2.12
2023-01-25T18:56:18.651Z,2.10
2023-01-25T18:58:45.606Z,2.10
2023-01-25T19:01:17.335Z,2.12
2023-01-25T19:03:44.693Z,2.11
2023-01-25T19:06:11.556Z,2.00
2023-01-25T19:08:43.197Z,2.01
2023-01-25T19:11:14.737Z,1.96
2023-01-25T19:13:42.373Z,1.93
2023-01-25T19:16:12.792Z,1.94
2023-01-25T19:18:44.493Z,1.90
2023-01-25T19:21:10.950Z,1.90
2023-01-25T19:23:39.063Z,1.89
2023-01-25T19:26:07.405Z,1.86
2023-01-25T19:28:34.754Z,1.84
2023-01-25T19:31:07.530Z,1.83
2023-01-25T19:33:34.740Z,1.81
2023-01-25T19:36:04.251Z,1.82
2023-01-25T19:38:31.961Z,1.81
2023-01-25T19:41:06.225Z,1.82
2023-01-25T19:43:33.017Z,1.82
2023-01-25T19:46:14.956Z,1.84
2023-01-25T19:48:42.512Z,1.86
2023-01-25T19:51:18.542Z,1.87
2023-01-25T19:53:48.645Z,1.87
2023-01-25T19:56:17.562Z,1.88
2023-01-25T19:58:46.123Z,1.89
2023-01-25T20:01:17.679Z,1.90
2023-01-25T20:03:44.425Z,1.90
2023-01-25T20:06:11.581Z,1.90
2023-01-25T20:08:40.840Z,1.88
2023-01-25T20:11:29.228Z,1.87
2023-01-25T20:13:59.246Z,1.84
2023-01-25T20:16:27.684Z,1.82
2023-01-25T20:18:55.823Z,1.81
2023-01-25T20:21:24.028Z,1.82
2023-01-25T20:23:53.278Z,1.81
2023-01-25T20:26:22.327Z,1.79
2023-01-25T20:28:51.645Z,1.81
2023-01-25T20:31:19.809Z,1.78
2023-01-25T20:33:46.999Z,1.79
2023-01-25T20:36:13.554Z,1.81
2023-01-25T20:38:40.036Z,1.84
2023-01-25T20:41:14.208Z,1.85
2023-01-25T20:43:46.211Z,1.85
2023-01-25T20:46:12.920Z,1.86
2023-01-25T20:48:39.404Z,1.88
2023-01-25T20:51:12.885Z,1.89
2023-01-25T20:53:41.589Z,1.89
2023-01-25T20:56:09.661Z,1.89
2023-01-25T20:58:36.437Z,1.86
2023-01-25T21:01:03.367Z,1.86
2023-01-25T21:03:30.205Z,1.87
2023-01-25T21:05:58.935Z,1.88
2023-01-25T21:08:26.180Z,1.87
2023-01-25T21:10:55.012Z,1.88
2023-01-25T21:13:21.926Z,1.89
2023-01-25T21:16:05.620Z,1.87
2023-01-25T21:18:51.678Z,1.84
2023-01-25T21:21:21.099Z,1.85
2023-01-25T21:23:49.496Z,1.88
2023-01-25T21:26:27.066Z,1.88
2023-01-25T21:28:55.176Z,1.87
2023-01-25T21:31:42.846Z,1.86
2023-01-25T21:34:10.316Z,1.87
2023-01-25T21:36:36.829Z,1.86
2023-01-25T21:39:03.624Z,1.85
2023-01-25T21:41:33.362Z,1.87
2023-01-25T21:44:19.169Z,1.85
2023-01-25T21:47:06.103Z,1.82
2023-01-25T21:49:51.541Z,1.83
2023-01-25T21:52:17.895Z,1.81
2023-01-25T21:54:44.327Z,1.81
2023-01-25T21:57:11.538Z,1.78
2023-01-25T21:59:38.404Z,1.79
2023-01-25T22:02:07.041Z,1.79
2023-01-25T22:04:36.332Z,1.78
2023-01-25T22:07:03.665Z,1.71
2023-01-25T22:09:30.310Z,1.69
2023-01-25T22:11:56.740Z,1.63
2023-01-25T22:14:23.273Z,1.59
2023-01-25T22:16:50.939Z,1.59
2023-01-25T22:19:17.891Z,1.59
2023-01-25T22:21:45.276Z,1.60
2023-01-25T22:24:12.475Z,1.64
2023-01-25T22:26:44.908Z,1.66
2023-01-25T22:29:12.324Z,1.68
2023-01-25T22:31:38.870Z,1.68
2023-01-25T22:34:05.411Z,1.68
2023-01-25T22:36:31.978Z,1.68
2023-01-25T22:39:00.218Z,1.68
2023-01-25T22:41:30.854Z,1.70
2023-01-25T22:43:57.929Z,1.68
2023-01-25T22:46:26.934Z,1.69
2023-01-25T22:48:53.451Z,1.68
2023-01-25T22:51:27.997Z,1.68
2023-01-25T22:53:55.332Z,1.67
2023-01-25T22:56:24.142Z,1.65
2023-01-25T22:58:51.476Z,1.64
2023-01-25T23:01:24.260Z,1.62
2023-01-25T23:03:51.233Z,1.60
2023-01-25T23:06:20.630Z,1.59
2023-01-25T23:08:47.583Z,1.56
2023-01-25T23:11:17.154Z,1.53
2023-01-25T23:14:03.287Z,1.48
2023-01-25T23:16:30.031Z,1.41
2023-01-25T23:18:57.046Z,1.38
2023-01-25T23:21:27.198Z,1.37
2023-01-25T23:23:54.686Z,1.36
2023-01-25T23:26:21.593Z,1.36
2023-01-25T23:28:53.449Z,1.31
2023-01-25T23:31:22.003Z,1.23
2023-01-25T23:33:54.291Z,1.24
2023-01-25T23:36:26.242Z,1.23
2023-01-25T23:38:53.730Z,1.18
2023-01-25T23:41:21.481Z,1.18
2023-01-25T23:43:48.294Z,1.20
2023-01-25T23:46:15.777Z,1.18
2023-01-25T23:48:43.646Z,1.21
2023-01-25T23:51:14.381Z,1.19
2023-01-25T23:53:41.447Z,1.20
2023-01-25T23:56:14.602Z,1.20
2023-01-25T23:58:41.360Z,1.18
